sensor_id;sensor_type;location;lat;lon;timestamp;P1;durP1;ratioP1;P2;durP2;ratioP2
17991;SDS011;9121;50.926;5.340;2023-05-21T00:01:04;9.95;;;7.32;;
17991;SDS011;9121;50.926;5.340;2023-05-21T00:03:31;11.82;;;7.00;;
17991;SDS011;9121;50.926;5.340;2023-05-21T00:05:59;11.80;;;6.82;;
17991;SDS011;9121;50.926;5.340;2023-05-21T00:08:27;13.70;;;7.28;;
17991;SDS011;9121;50.926;5.340;2023-05-21T00:10:55;10.65;;;6.90;;
17991;SDS011;9121;50.926;5.340;2023-05-21T00:13:22;9.85;;;6.85;;
17991;SDS011;9121;50.926;5.340;2023-05-21T00:15:50;8.98;;;7.45;;
17991;SDS011;9121;50.926;5.340;2023-05-21T00:18:17;10.70;;;7.90;;
17991;SDS011;9121;50.926;5.340;2023-05-21T00:20:44;44.22;;;8.65;;
17991;SDS011;9121;50.926;5.340;2023-05-21T00:23:11;14.43;;;7.45;;
17991;SDS011;9121;50.926;5.340;2023-05-21T00:25:42;11.77;;;7.65;;
17991;SDS011;9121;50.926;5.340;2023-05-21T00:28:10;15.18;;;7.57;;
17991;SDS011;9121;50.926;5.340;2023-05-21T00:30:37;12.57;;;8.35;;
17991;SDS011;9121;50.926;5.340;2023-05-21T00:33:06;77.78;;;10.85;;
17991;SDS011;9121;50.926;5.340;2023-05-21T00:35:34;11.63;;;7.93;;
17991;SDS011;9121;50.926;5.340;2023-05-21T00:38:01;13.40;;;8.57;;
17991;SDS011;9121;50.926;5.340;2023-05-21T00:40:29;11.02;;;7.93;;
17991;SDS011;9121;50.926;5.340;2023-05-21T00:42:56;10.35;;;7.40;;
17991;SDS011;9121;50.926;5.340;2023-05-21T00:45:23;12.43;;;8.52;;
17991;SDS011;9121;50.926;5.340;2023-05-21T00:47:50;11.18;;;8.13;;
17991;SDS011;9121;50.926;5.340;2023-05-21T00:50:20;9.82;;;7.70;;
17991;SDS011;9121;50.926;5.340;2023-05-21T00:52:47;16.92;;;8.18;;
17991;SDS011;9121;50.926;5.340;2023-05-21T00:55:15;13.02;;;8.23;;
17991;SDS011;9121;50.926;5.340;2023-05-21T00:57:42;13.45;;;8.93;;
17991;SDS011;9121;50.926;5.340;2023-05-21T01:00:10;13.18;;;8.45;;
17991;SDS011;9121;50.926;5.340;2023-05-21T01:02:40;11.07;;;8.35;;
17991;SDS011;9121;50.926;5.340;2023-05-21T01:05:08;17.50;;;8.85;;
17991;SDS011;9121;50.926;5.340;2023-05-21T01:07:37;23.55;;;9.20;;
17991;SDS011;9121;50.926;5.340;2023-05-21T01:10:07;14.43;;;9.10;;
17991;SDS011;9121;50.926;5.340;2023-05-21T01:12:36;21.35;;;8.73;;
17991;SDS011;9121;50.926;5.340;2023-05-21T01:15:05;12.98;;;9.25;;
17991;SDS011;9121;50.926;5.340;2023-05-21T01:17:33;14.93;;;9.75;;
17991;SDS011;9121;50.926;5.340;2023-05-21T01:20:00;14.43;;;9.43;;
17991;SDS011;9121;50.926;5.340;2023-05-21T01:22:34;15.55;;;9.52;;
17991;SDS011;9121;50.926;5.340;2023-05-21T01:25:05;13.25;;;9.55;;
17991;SDS011;9121;50.926;5.340;2023-05-21T01:27:32;13.85;;;9.45;;
17991;SDS011;9121;50.926;5.340;2023-05-21T01:29:59;18.45;;;9.55;;
17991;SDS011;9121;50.926;5.340;2023-05-21T01:32:30;13.23;;;9.15;;
17991;SDS011;9121;50.926;5.340;2023-05-21T01:35:01;13.02;;;8.82;;
17991;SDS011;9121;50.926;5.340;2023-05-21T01:37:34;17.88;;;10.32;;
17991;SDS011;9121;50.926;5.340;2023-05-21T01:40:09;12.50;;;9.15;;
17991;SDS011;9121;50.926;5.340;2023-05-21T01:42:42;14.27;;;9.18;;
17991;SDS011;9121;50.926;5.340;2023-05-21T01:45:10;13.30;;;9.55;;
17991;SDS011;9121;50.926;5.340;2023-05-21T01:47:39;15.05;;;9.82;;
17991;SDS011;9121;50.926;5.340;2023-05-21T01:50:07;14.55;;;10.38;;
17991;SDS011;9121;50.926;5.340;2023-05-21T01:52:35;19.90;;;9.85;;
17991;SDS011;9121;50.926;5.340;2023-05-21T01:55:02;13.38;;;9.60;;
17991;SDS011;9121;50.926;5.340;2023-05-21T01:57:31;11.75;;;8.57;;
17991;SDS011;9121;50.926;5.340;2023-05-21T01:59:58;17.20;;;9.38;;
17991;SDS011;9121;50.926;5.340;2023-05-21T02:02:25;13.57;;;9.05;;
17991;SDS011;9121;50.926;5.340;2023-05-21T02:04:53;15.70;;;9.15;;
17991;SDS011;9121;50.926;5.340;2023-05-21T02:07:20;15.10;;;9.75;;
17991;SDS011;9121;50.926;5.340;2023-05-21T02:09:48;23.15;;;9.57;;
17991;SDS011;9121;50.926;5.340;2023-05-21T02:12:15;13.00;;;9.43;;
17991;SDS011;9121;50.926;5.340;2023-05-21T02:14:43;16.83;;;10.80;;
17991;SDS011;9121;50.926;5.340;2023-05-21T02:17:14;15.20;;;8.95;;
17991;SDS011;9121;50.926;5.340;2023-05-21T02:19:41;16.00;;;9.68;;
17991;SDS011;9121;50.926;5.340;2023-05-21T02:22:08;12.75;;;9.20;;
17991;SDS011;9121;50.926;5.340;2023-05-21T02:24:35;15.85;;;9.80;;
17991;SDS011;9121;50.926;5.340;2023-05-21T02:27:02;11.02;;;8.65;;
17991;SDS011;9121;50.926;5.340;2023-05-21T02:29:30;14.18;;;10.23;;
17991;SDS011;9121;50.926;5.340;2023-05-21T02:31:58;16.20;;;9.90;;
17991;SDS011;9121;50.926;5.340;2023-05-21T02:34:25;16.70;;;9.63;;
17991;SDS011;9121;50.926;5.340;2023-05-21T02:36:54;14.27;;;9.93;;
17991;SDS011;9121;50.926;5.340;2023-05-21T02:39:22;15.30;;;9.80;;
17991;SDS011;9121;50.926;5.340;2023-05-21T02:41:50;15.55;;;10.13;;
17991;SDS011;9121;50.926;5.340;2023-05-21T02:44:17;15.85;;;9.38;;
17991;SDS011;9121;50.926;5.340;2023-05-21T02:46:44;13.18;;;9.00;;
17991;SDS011;9121;50.926;5.340;2023-05-21T02:49:13;16.83;;;9.93;;
17991;SDS011;9121;50.926;5.340;2023-05-21T02:51:40;15.88;;;10.13;;
17991;SDS011;9121;50.926;5.340;2023-05-21T02:54:07;14.27;;;9.55;;
17991;SDS011;9121;50.926;5.340;2023-05-21T02:56:33;14.32;;;9.32;;
17991;SDS011;9121;50.926;5.340;2023-05-21T02:59:00;15.35;;;10.35;;
17991;SDS011;9121;50.926;5.340;2023-05-21T03:01:27;17.63;;;9.65;;
17991;SDS011;9121;50.926;5.340;2023-05-21T03:03:54;13.38;;;9.63;;
17991;SDS011;9121;50.926;5.340;2023-05-21T03:06:22;15.65;;;9.55;;
17991;SDS011;9121;50.926;5.340;2023-05-21T03:08:49;16.35;;;9.55;;
17991;SDS011;9121;50.926;5.340;2023-05-21T03:11:17;15.82;;;9.35;;
17991;SDS011;9121;50.926;5.340;2023-05-21T03:13:44;14.93;;;9.95;;
17991;SDS011;9121;50.926;5.340;2023-05-21T03:16:11;17.60;;;9.95;;
17991;SDS011;9121;50.926;5.340;2023-05-21T03:18:38;15.23;;;9.05;;
17991;SDS011;9121;50.926;5.340;2023-05-21T03:21:05;15.82;;;9.57;;
17991;SDS011;9121;50.926;5.340;2023-05-21T03:23:33;13.20;;;9.55;;
17991;SDS011;9121;50.926;5.340;2023-05-21T03:26:01;19.42;;;10.20;;
17991;SDS011;9121;50.926;5.340;2023-05-21T03:28:28;13.00;;;9.70;;
17991;SDS011;9121;50.926;5.340;2023-05-21T03:30:56;14.90;;;8.63;;
17991;SDS011;9121;50.926;5.340;2023-05-21T03:33:23;14.57;;;9.45;;
17991;SDS011;9121;50.926;5.340;2023-05-21T03:35:50;34.80;;;9.65;;
17991;SDS011;9121;50.926;5.340;2023-05-21T03:38:17;14.48;;;9.60;;
17991;SDS011;9121;50.926;5.340;2023-05-21T03:40:45;15.45;;;9.18;;
17991;SDS011;9121;50.926;5.340;2023-05-21T03:43:12;15.13;;;9.60;;
17991;SDS011;9121;50.926;5.340;2023-05-21T03:45:39;13.25;;;9.50;;
17991;SDS011;9121;50.926;5.340;2023-05-21T03:48:06;18.92;;;8.88;;
17991;SDS011;9121;50.926;5.340;2023-05-21T03:50:33;16.55;;;9.48;;
17991;SDS011;9121;50.926;5.340;2023-05-21T03:53:00;23.42;;;10.15;;
17991;SDS011;9121;50.926;5.340;2023-05-21T03:55:27;13.10;;;9.23;;
17991;SDS011;9121;50.926;5.340;2023-05-21T03:57:55;17.20;;;9.68;;
17991;SDS011;9121;50.926;5.340;2023-05-21T04:00:22;18.70;;;8.35;;
17991;SDS011;9121;50.926;5.340;2023-05-21T04:02:50;14.23;;;9.15;;
17991;SDS011;9121;50.926;5.340;2023-05-21T04:05:17;12.68;;;9.35;;
17991;SDS011;9121;50.926;5.340;2023-05-21T04:07:44;13.73;;;8.48;;
17991;SDS011;9121;50.926;5.340;2023-05-21T04:10:11;14.10;;;9.20;;
17991;SDS011;9121;50.926;5.340;2023-05-21T04:12:38;12.85;;;9.15;;
17991;SDS011;9121;50.926;5.340;2023-05-21T04:15:07;14.25;;;8.75;;
17991;SDS011;9121;50.926;5.340;2023-05-21T04:17:35;14.27;;;8.98;;
17991;SDS011;9121;50.926;5.340;2023-05-21T04:20:01;15.07;;;8.90;;
17991;SDS011;9121;50.926;5.340;2023-05-21T04:22:29;12.98;;;8.63;;
17991;SDS011;9121;50.926;5.340;2023-05-21T04:24:55;11.75;;;8.50;;
17991;SDS011;9121;50.926;5.340;2023-05-21T04:27:23;16.13;;;8.57;;
17991;SDS011;9121;50.926;5.340;2023-05-21T04:29:50;11.48;;;8.13;;
17991;SDS011;9121;50.926;5.340;2023-05-21T04:32:20;15.95;;;9.45;;
17991;SDS011;9121;50.926;5.340;2023-05-21T04:34:47;13.95;;;8.77;;
17991;SDS011;9121;50.926;5.340;2023-05-21T04:37:13;13.50;;;8.98;;
17991;SDS011;9121;50.926;5.340;2023-05-21T04:39:41;14.68;;;8.55;;
17991;SDS011;9121;50.926;5.340;2023-05-21T04:42:08;12.65;;;8.40;;
17991;SDS011;9121;50.926;5.340;2023-05-21T04:44:35;11.65;;;8.70;;
17991;SDS011;9121;50.926;5.340;2023-05-21T04:47:04;18.55;;;8.75;;
17991;SDS011;9121;50.926;5.340;2023-05-21T04:49:33;12.05;;;8.32;;
17991;SDS011;9121;50.926;5.340;2023-05-21T04:52:00;14.55;;;8.25;;
17991;SDS011;9121;50.926;5.340;2023-05-21T04:54:27;17.42;;;8.65;;
17991;SDS011;9121;50.926;5.340;2023-05-21T04:56:54;11.38;;;8.15;;
17991;SDS011;9121;50.926;5.340;2023-05-21T04:59:22;12.20;;;8.50;;
17991;SDS011;9121;50.926;5.340;2023-05-21T05:01:49;13.82;;;8.02;;
17991;SDS011;9121;50.926;5.340;2023-05-21T05:04:16;21.67;;;8.05;;
17991;SDS011;9121;50.926;5.340;2023-05-21T05:06:44;41.70;;;9.02;;
17991;SDS011;9121;50.926;5.340;2023-05-21T05:09:11;13.27;;;7.63;;
17991;SDS011;9121;50.926;5.340;2023-05-21T05:11:38;12.68;;;7.78;;
17991;SDS011;9121;50.926;5.340;2023-05-21T05:14:05;15.50;;;7.63;;
17991;SDS011;9121;50.926;5.340;2023-05-21T05:16:32;15.95;;;8.27;;
17991;SDS011;9121;50.926;5.340;2023-05-21T05:18:59;11.77;;;7.55;;
17991;SDS011;9121;50.926;5.340;2023-05-21T05:21:26;11.10;;;7.78;;
17991;SDS011;9121;50.926;5.340;2023-05-21T05:23:54;14.73;;;8.05;;
17991;SDS011;9121;50.926;5.340;2023-05-21T05:26:21;11.27;;;8.20;;
17991;SDS011;9121;50.926;5.340;2023-05-21T05:28:49;11.57;;;8.20;;
17991;SDS011;9121;50.926;5.340;2023-05-21T05:31:16;11.75;;;7.82;;
17991;SDS011;9121;50.926;5.340;2023-05-21T05:33:43;12.45;;;8.00;;
17991;SDS011;9121;50.926;5.340;2023-05-21T05:36:10;13.85;;;8.07;;
17991;SDS011;9121;50.926;5.340;2023-05-21T05:38:37;11.13;;;8.20;;
17991;SDS011;9121;50.926;5.340;2023-05-21T05:41:05;17.30;;;8.60;;
17991;SDS011;9121;50.926;5.340;2023-05-21T05:43:32;12.02;;;8.07;;
17991;SDS011;9121;50.926;5.340;2023-05-21T05:45:59;13.93;;;8.18;;
17991;SDS011;9121;50.926;5.340;2023-05-21T05:48:26;12.25;;;7.68;;
17991;SDS011;9121;50.926;5.340;2023-05-21T05:50:53;11.23;;;8.07;;
17991;SDS011;9121;50.926;5.340;2023-05-21T05:53:21;14.00;;;8.07;;
17991;SDS011;9121;50.926;5.340;2023-05-21T05:55:48;11.00;;;7.72;;
17991;SDS011;9121;50.926;5.340;2023-05-21T05:58:16;11.35;;;7.53;;
17991;SDS011;9121;50.926;5.340;2023-05-21T06:00:43;11.85;;;8.20;;
17991;SDS011;9121;50.926;5.340;2023-05-21T06:03:10;12.18;;;8.07;;
17991;SDS011;9121;50.926;5.340;2023-05-21T06:05:38;9.90;;;7.97;;
17991;SDS011;9121;50.926;5.340;2023-05-21T06:08:04;11.68;;;7.82;;
17991;SDS011;9121;50.926;5.340;2023-05-21T06:10:32;13.15;;;8.40;;
17991;SDS011;9121;50.926;5.340;2023-05-21T06:12:59;11.52;;;8.30;;
17991;SDS011;9121;50.926;5.340;2023-05-21T06:15:27;17.83;;;8.52;;
17991;SDS011;9121;50.926;5.340;2023-05-21T06:17:55;11.57;;;7.95;;
17991;SDS011;9121;50.926;5.340;2023-05-21T06:20:21;12.52;;;8.40;;
17991;SDS011;9121;50.926;5.340;2023-05-21T06:22:48;10.68;;;8.10;;
17991;SDS011;9121;50.926;5.340;2023-05-21T06:25:15;16.42;;;8.48;;
17991;SDS011;9121;50.926;5.340;2023-05-21T06:27:42;11.30;;;8.55;;
17991;SDS011;9121;50.926;5.340;2023-05-21T06:30:09;17.75;;;8.43;;
17991;SDS011;9121;50.926;5.340;2023-05-21T06:32:38;11.85;;;8.60;;
17991;SDS011;9121;50.926;5.340;2023-05-21T06:35:05;14.80;;;9.10;;
17991;SDS011;9121;50.926;5.340;2023-05-21T06:37:32;13.20;;;8.90;;
17991;SDS011;9121;50.926;5.340;2023-05-21T06:39:59;15.20;;;9.38;;
17991;SDS011;9121;50.926;5.340;2023-05-21T06:42:27;17.15;;;8.43;;
17991;SDS011;9121;50.926;5.340;2023-05-21T06:44:54;43.50;;;9.70;;
17991;SDS011;9121;50.926;5.340;2023-05-21T06:47:20;14.43;;;8.25;;
17991;SDS011;9121;50.926;5.340;2023-05-21T06:49:49;10.88;;;7.93;;
17991;SDS011;9121;50.926;5.340;2023-05-21T06:52:16;13.90;;;8.80;;
17991;SDS011;9121;50.926;5.340;2023-05-21T06:54:43;12.77;;;8.45;;
17991;SDS011;9121;50.926;5.340;2023-05-21T06:57:09;15.50;;;8.30;;
17991;SDS011;9121;50.926;5.340;2023-05-21T06:59:36;11.25;;;8.13;;
17991;SDS011;9121;50.926;5.340;2023-05-21T07:02:04;15.93;;;8.82;;
17991;SDS011;9121;50.926;5.340;2023-05-21T07:04:31;12.57;;;8.57;;
17991;SDS011;9121;50.926;5.340;2023-05-21T07:07:00;14.30;;;8.88;;
17991;SDS011;9121;50.926;5.340;2023-05-21T07:09:29;13.88;;;8.90;;
17991;SDS011;9121;50.926;5.340;2023-05-21T07:11:56;12.27;;;8.80;;
17991;SDS011;9121;50.926;5.340;2023-05-21T07:14:23;15.85;;;9.27;;
17991;SDS011;9121;50.926;5.340;2023-05-21T07:16:51;15.00;;;8.68;;
17991;SDS011;9121;50.926;5.340;2023-05-21T07:19:18;15.70;;;9.38;;
17991;SDS011;9121;50.926;5.340;2023-05-21T07:21:45;15.23;;;8.05;;
17991;SDS011;9121;50.926;5.340;2023-05-21T07:24:13;15.50;;;8.18;;
17991;SDS011;9121;50.926;5.340;2023-05-21T07:26:40;17.70;;;8.85;;
17991;SDS011;9121;50.926;5.340;2023-05-21T07:29:07;14.27;;;9.60;;
17991;SDS011;9121;50.926;5.340;2023-05-21T07:31:34;13.32;;;9.30;;
17991;SDS011;9121;50.926;5.340;2023-05-21T07:34:01;15.65;;;10.02;;
17991;SDS011;9121;50.926;5.340;2023-05-21T07:36:28;12.70;;;9.23;;
17991;SDS011;9121;50.926;5.340;2023-05-21T07:38:57;16.42;;;8.80;;
17991;SDS011;9121;50.926;5.340;2023-05-21T07:41:25;13.25;;;9.00;;
17991;SDS011;9121;50.926;5.340;2023-05-21T07:43:52;15.65;;;10.18;;
17991;SDS011;9121;50.926;5.340;2023-05-21T07:46:19;17.58;;;10.23;;
17991;SDS011;9121;50.926;5.340;2023-05-21T07:48:46;17.00;;;9.82;;
17991;SDS011;9121;50.926;5.340;2023-05-21T07:51:14;14.63;;;10.48;;
17991;SDS011;9121;50.926;5.340;2023-05-21T07:53:41;21.08;;;10.43;;
17991;SDS011;9121;50.926;5.340;2023-05-21T07:56:08;24.85;;;9.70;;
17991;SDS011;9121;50.926;5.340;2023-05-21T07:58:36;14.82;;;9.60;;
17991;SDS011;9121;50.926;5.340;2023-05-21T08:01:03;13.60;;;9.98;;
17991;SDS011;9121;50.926;5.340;2023-05-21T08:03:30;17.35;;;10.63;;
17991;SDS011;9121;50.926;5.340;2023-05-21T08:05:57;15.60;;;10.57;;
17991;SDS011;9121;50.926;5.340;2023-05-21T08:08:24;28.98;;;11.18;;
17991;SDS011;9121;50.926;5.340;2023-05-21T08:10:51;16.40;;;10.35;;
17991;SDS011;9121;50.926;5.340;2023-05-21T08:13:18;15.35;;;10.23;;
17991;SDS011;9121;50.926;5.340;2023-05-21T08:15:47;16.38;;;10.88;;
17991;SDS011;9121;50.926;5.340;2023-05-21T08:18:14;16.13;;;10.05;;
17991;SDS011;9121;50.926;5.340;2023-05-21T08:20:41;14.35;;;10.05;;
17991;SDS011;9121;50.926;5.340;2023-05-21T08:23:09;18.08;;;10.60;;
17991;SDS011;9121;50.926;5.340;2023-05-21T08:25:36;37.03;;;11.07;;
17991;SDS011;9121;50.926;5.340;2023-05-21T08:28:03;15.23;;;10.80;;
17991;SDS011;9121;50.926;5.340;2023-05-21T08:30:30;27.33;;;11.20;;
17991;SDS011;9121;50.926;5.340;2023-05-21T08:32:58;16.00;;;10.68;;
17991;SDS011;9121;50.926;5.340;2023-05-21T08:35:26;14.27;;;10.35;;
17991;SDS011;9121;50.926;5.340;2023-05-21T08:37:53;15.10;;;10.95;;
17991;SDS011;9121;50.926;5.340;2023-05-21T08:40:20;16.08;;;10.68;;
17991;SDS011;9121;50.926;5.340;2023-05-21T08:42:47;16.02;;;11.20;;
17991;SDS011;9121;50.926;5.340;2023-05-21T08:45:18;15.80;;;11.48;;
17991;SDS011;9121;50.926;5.340;2023-05-21T08:47:46;19.60;;;11.40;;
17991;SDS011;9121;50.926;5.340;2023-05-21T08:50:17;17.25;;;12.43;;
17991;SDS011;9121;50.926;5.340;2023-05-21T08:52:45;21.38;;;11.52;;
17991;SDS011;9121;50.926;5.340;2023-05-21T08:55:12;20.48;;;11.18;;
17991;SDS011;9121;50.926;5.340;2023-05-21T08:57:41;21.98;;;11.45;;
17991;SDS011;9121;50.926;5.340;2023-05-21T09:00:09;17.67;;;11.27;;
17991;SDS011;9121;50.926;5.340;2023-05-21T09:02:37;18.50;;;12.32;;
17991;SDS011;9121;50.926;5.340;2023-05-21T09:05:08;23.75;;;12.85;;
17991;SDS011;9121;50.926;5.340;2023-05-21T09:07:38;18.92;;;11.45;;
17991;SDS011;9121;50.926;5.340;2023-05-21T09:10:11;15.55;;;11.50;;
17991;SDS011;9121;50.926;5.340;2023-05-21T09:12:39;19.17;;;11.07;;
17991;SDS011;9121;50.926;5.340;2023-05-21T09:15:06;16.63;;;11.57;;
17991;SDS011;9121;50.926;5.340;2023-05-21T09:17:33;16.67;;;11.32;;
17991;SDS011;9121;50.926;5.340;2023-05-21T09:20:04;22.00;;;12.00;;
17991;SDS011;9121;50.926;5.340;2023-05-21T09:22:34;21.90;;;11.32;;
17991;SDS011;9121;50.926;5.340;2023-05-21T09:25:05;17.27;;;11.00;;
17991;SDS011;9121;50.926;5.340;2023-05-21T09:27:33;17.33;;;10.70;;
17991;SDS011;9121;50.926;5.340;2023-05-21T09:30:00;15.27;;;11.07;;
17991;SDS011;9121;50.926;5.340;2023-05-21T09:32:27;19.48;;;12.43;;
17991;SDS011;9121;50.926;5.340;2023-05-21T09:34:54;19.88;;;12.23;;
17991;SDS011;9121;50.926;5.340;2023-05-21T09:37:21;15.90;;;11.52;;
17991;SDS011;9121;50.926;5.340;2023-05-21T09:39:48;17.92;;;10.98;;
17991;SDS011;9121;50.926;5.340;2023-05-21T09:42:16;18.73;;;12.45;;
17991;SDS011;9121;50.926;5.340;2023-05-21T09:44:46;16.10;;;11.65;;
17991;SDS011;9121;50.926;5.340;2023-05-21T09:47:18;20.52;;;12.50;;
17991;SDS011;9121;50.926;5.340;2023-05-21T09:49:45;20.95;;;12.35;;
17991;SDS011;9121;50.926;5.340;2023-05-21T09:52:12;19.90;;;12.13;;
17991;SDS011;9121;50.926;5.340;2023-05-21T09:54:48;19.90;;;12.60;;
17991;SDS011;9121;50.926;5.340;2023-05-21T09:57:23;21.17;;;13.07;;
17991;SDS011;9121;50.926;5.340;2023-05-21T09:59:50;24.25;;;13.88;;
17991;SDS011;9121;50.926;5.340;2023-05-21T10:02:18;18.63;;;13.55;;
17991;SDS011;9121;50.926;5.340;2023-05-21T10:04:47;19.52;;;13.32;;
17991;SDS011;9121;50.926;5.340;2023-05-21T10:07:16;20.95;;;13.55;;
17991;SDS011;9121;50.926;5.340;2023-05-21T10:09:45;23.67;;;13.30;;
17991;SDS011;9121;50.926;5.340;2023-05-21T10:12:14;19.52;;;13.02;;
17991;SDS011;9121;50.926;5.340;2023-05-21T10:14:45;21.40;;;14.88;;
17991;SDS011;9121;50.926;5.340;2023-05-21T10:17:17;18.00;;;12.93;;
17991;SDS011;9121;50.926;5.340;2023-05-21T10:19:44;18.27;;;13.02;;
17991;SDS011;9121;50.926;5.340;2023-05-21T10:22:12;20.02;;;12.73;;
17991;SDS011;9121;50.926;5.340;2023-05-21T10:24:40;18.10;;;13.02;;
17991;SDS011;9121;50.926;5.340;2023-05-21T10:27:10;20.08;;;13.82;;
17991;SDS011;9121;50.926;5.340;2023-05-21T10:29:38;24.85;;;13.73;;
17991;SDS011;9121;50.926;5.340;2023-05-21T10:32:07;23.08;;;13.57;;
17991;SDS011;9121;50.926;5.340;2023-05-21T10:34:37;22.27;;;13.95;;
17991;SDS011;9121;50.926;5.340;2023-05-21T10:37:04;21.80;;;13.88;;
17991;SDS011;9121;50.926;5.340;2023-05-21T10:39:33;42.38;;;15.80;;
17991;SDS011;9121;50.926;5.340;2023-05-21T10:42:05;16.83;;;12.88;;
17991;SDS011;9121;50.926;5.340;2023-05-21T10:44:43;23.63;;;15.15;;
17991;SDS011;9121;50.926;5.340;2023-05-21T10:50:31;23.05;;;14.85;;
17991;SDS011;9121;50.926;5.340;2023-05-21T10:53:12;24.23;;;14.48;;
17991;SDS011;9121;50.926;5.340;2023-05-21T10:55:47;23.02;;;14.52;;
17991;SDS011;9121;50.926;5.340;2023-05-21T10:58:35;22.30;;;16.10;;
17991;SDS011;9121;50.926;5.340;2023-05-21T11:01:25;18.40;;;13.70;;
17991;SDS011;9121;50.926;5.340;2023-05-21T11:03:55;28.63;;;14.10;;
17991;SDS011;9121;50.926;5.340;2023-05-21T11:06:24;21.15;;;14.25;;
17991;SDS011;9121;50.926;5.340;2023-05-21T11:08:51;22.25;;;13.60;;
17991;SDS011;9121;50.926;5.340;2023-05-21T11:17:00;21.25;;;14.65;;
17991;SDS011;9121;50.926;5.340;2023-05-21T11:19:34;21.38;;;14.23;;
17991;SDS011;9121;50.926;5.340;2023-05-21T11:22:06;35.00;;;14.13;;
17991;SDS011;9121;50.926;5.340;2023-05-21T11:24:37;25.58;;;13.68;;
17991;SDS011;9121;50.926;5.340;2023-05-21T11:27:05;21.15;;;14.55;;
17991;SDS011;9121;50.926;5.340;2023-05-21T11:29:37;26.83;;;13.73;;
17991;SDS011;9121;50.926;5.340;2023-05-21T11:32:06;20.20;;;14.65;;
17991;SDS011;9121;50.926;5.340;2023-05-21T11:34:39;22.23;;;15.35;;
17991;SDS011;9121;50.926;5.340;2023-05-21T11:37:26;22.83;;;14.90;;
17991;SDS011;9121;50.926;5.340;2023-05-21T11:39:56;21.40;;;15.25;;
17991;SDS011;9121;50.926;5.340;2023-05-21T11:42:27;26.27;;;15.55;;
17991;SDS011;9121;50.926;5.340;2023-05-21T11:44:55;80.88;;;17.20;;
17991;SDS011;9121;50.926;5.340;2023-05-21T11:47:23;21.20;;;15.30;;
17991;SDS011;9121;50.926;5.340;2023-05-21T11:49:52;44.25;;;15.75;;
17991;SDS011;9121;50.926;5.340;2023-05-21T11:52:20;20.63;;;14.60;;
17991;SDS011;9121;50.926;5.340;2023-05-21T11:54:49;23.80;;;15.38;;
17991;SDS011;9121;50.926;5.340;2023-05-21T11:57:19;30.23;;;16.10;;
17991;SDS011;9121;50.926;5.340;2023-05-21T11:59:47;18.80;;;14.18;;
17991;SDS011;9121;50.926;5.340;2023-05-21T12:02:15;27.38;;;14.50;;
17991;SDS011;9121;50.926;5.340;2023-05-21T12:04:43;19.38;;;14.88;;
17991;SDS011;9121;50.926;5.340;2023-05-21T12:07:14;22.95;;;14.80;;
17991;SDS011;9121;50.926;5.340;2023-05-21T12:09:43;20.65;;;13.13;;
17991;SDS011;9121;50.926;5.340;2023-05-21T12:12:11;21.02;;;13.77;;
17991;SDS011;9121;50.926;5.340;2023-05-21T12:14:42;64.22;;;15.93;;
17991;SDS011;9121;50.926;5.340;2023-05-21T12:17:09;27.75;;;15.13;;
17991;SDS011;9121;50.926;5.340;2023-05-21T12:19:37;27.90;;;14.88;;
17991;SDS011;9121;50.926;5.340;2023-05-21T12:22:05;38.33;;;14.82;;
17991;SDS011;9121;50.926;5.340;2023-05-21T12:24:34;21.40;;;14.25;;
17991;SDS011;9121;50.926;5.340;2023-05-21T12:27:02;18.45;;;13.88;;
17991;SDS011;9121;50.926;5.340;2023-05-21T12:29:33;44.67;;;15.27;;
17991;SDS011;9121;50.926;5.340;2023-05-21T12:32:02;25.13;;;14.63;;
17991;SDS011;9121;50.926;5.340;2023-05-21T12:34:36;26.27;;;14.57;;
17991;SDS011;9121;50.926;5.340;2023-05-21T12:37:09;22.67;;;15.98;;
17991;SDS011;9121;50.926;5.340;2023-05-21T12:39:39;20.42;;;14.75;;
17991;SDS011;9121;50.926;5.340;2023-05-21T12:42:06;19.45;;;13.98;;
17991;SDS011;9121;50.926;5.340;2023-05-21T12:44:34;20.60;;;15.88;;
17991;SDS011;9121;50.926;5.340;2023-05-21T12:47:01;24.95;;;15.48;;
17991;SDS011;9121;50.926;5.340;2023-05-21T12:49:32;23.58;;;15.02;;
17991;SDS011;9121;50.926;5.340;2023-05-21T12:52:04;18.13;;;13.75;;
17991;SDS011;9121;50.926;5.340;2023-05-21T12:54:34;39.53;;;14.88;;
17991;SDS011;9121;50.926;5.340;2023-05-21T12:57:07;19.50;;;14.20;;
17991;SDS011;9121;50.926;5.340;2023-05-21T12:59:45;21.25;;;14.07;;
17991;SDS011;9121;50.926;5.340;2023-05-21T13:02:13;23.77;;;15.32;;
17991;SDS011;9121;50.926;5.340;2023-05-21T13:04:41;130.77;;;19.38;;
17991;SDS011;9121;50.926;5.340;2023-05-21T13:07:08;19.88;;;13.95;;
17991;SDS011;9121;50.926;5.340;2023-05-21T13:09:35;44.67;;;15.27;;
17991;SDS011;9121;50.926;5.340;2023-05-21T13:12:02;22.17;;;14.07;;
17991;SDS011;9121;50.926;5.340;2023-05-21T13:14:31;22.45;;;14.52;;
17991;SDS011;9121;50.926;5.340;2023-05-21T13:16:58;22.02;;;14.52;;
17991;SDS011;9121;50.926;5.340;2023-05-21T13:19:25;21.60;;;15.23;;
17991;SDS011;9121;50.926;5.340;2023-05-21T13:21:52;23.35;;;15.25;;
17991;SDS011;9121;50.926;5.340;2023-05-21T13:24:19;35.42;;;14.52;;
17991;SDS011;9121;50.926;5.340;2023-05-21T13:26:46;18.85;;;13.82;;
17991;SDS011;9121;50.926;5.340;2023-05-21T13:29:13;28.58;;;15.95;;
17991;SDS011;9121;50.926;5.340;2023-05-21T13:31:42;22.90;;;13.70;;
17991;SDS011;9121;50.926;5.340;2023-05-21T13:34:09;20.58;;;14.25;;
17991;SDS011;9121;50.926;5.340;2023-05-21T13:36:37;34.83;;;14.60;;
17991;SDS011;9121;50.926;5.340;2023-05-21T13:39:04;20.60;;;14.00;;
17991;SDS011;9121;50.926;5.340;2023-05-21T13:41:31;28.33;;;13.52;;
17991;SDS011;9121;50.926;5.340;2023-05-21T13:43:58;22.40;;;13.27;;
17991;SDS011;9121;50.926;5.340;2023-05-21T13:46:25;18.55;;;13.18;;
17991;SDS011;9121;50.926;5.340;2023-05-21T13:48:53;23.85;;;14.52;;
17991;SDS011;9121;50.926;5.340;2023-05-21T13:51:21;18.15;;;13.82;;
17991;SDS011;9121;50.926;5.340;2023-05-21T13:53:48;21.30;;;14.48;;
17991;SDS011;9121;50.926;5.340;2023-05-21T13:56:15;25.35;;;13.52;;
17991;SDS011;9121;50.926;5.340;2023-05-21T13:58:42;24.38;;;14.25;;
17991;SDS011;9121;50.926;5.340;2023-05-21T14:01:10;19.50;;;13.13;;
17991;SDS011;9121;50.926;5.340;2023-05-21T14:03:37;23.55;;;13.10;;
17991;SDS011;9121;50.926;5.340;2023-05-21T14:06:05;17.70;;;12.50;;
17991;SDS011;9121;50.926;5.340;2023-05-21T14:08:32;23.98;;;12.40;;
17991;SDS011;9121;50.926;5.340;2023-05-21T14:10:59;18.98;;;13.32;;
17991;SDS011;9121;50.926;5.340;2023-05-21T14:13:26;33.28;;;13.35;;
17991;SDS011;9121;50.926;5.340;2023-05-21T14:15:53;22.02;;;13.45;;
17991;SDS011;9121;50.926;5.340;2023-05-21T14:18:20;19.75;;;12.13;;
17991;SDS011;9121;50.926;5.340;2023-05-21T14:20:47;17.23;;;12.90;;
17991;SDS011;9121;50.926;5.340;2023-05-21T14:23:16;16.75;;;12.90;;
17991;SDS011;9121;50.926;5.340;2023-05-21T14:25:43;16.58;;;11.68;;
17991;SDS011;9121;50.926;5.340;2023-05-21T14:28:09;19.58;;;12.48;;
17991;SDS011;9121;50.926;5.340;2023-05-21T14:30:36;16.52;;;13.90;;
17991;SDS011;9121;50.926;5.340;2023-05-21T14:33:03;21.70;;;14.05;;
17991;SDS011;9121;50.926;5.340;2023-05-21T14:35:30;36.65;;;13.07;;
17991;SDS011;9121;50.926;5.340;2023-05-21T14:37:57;19.25;;;13.30;;
17991;SDS011;9121;50.926;5.340;2023-05-21T14:40:25;24.13;;;14.32;;
17991;SDS011;9121;50.926;5.340;2023-05-21T14:42:52;30.15;;;14.00;;
17991;SDS011;9121;50.926;5.340;2023-05-21T14:45:20;17.67;;;12.10;;
17991;SDS011;9121;50.926;5.340;2023-05-21T14:47:47;21.33;;;12.75;;
17991;SDS011;9121;50.926;5.340;2023-05-21T14:50:14;18.52;;;12.55;;
17991;SDS011;9121;50.926;5.340;2023-05-21T14:52:42;21.75;;;13.77;;
17991;SDS011;9121;50.926;5.340;2023-05-21T14:55:09;61.78;;;14.93;;